VE-0136 weather

Mene Grande Heliport
Zulia, Venezuela

Public forecast

Using degrees Celsius for public forecast. Weather courtesy of forecast.io.

METAR (pilot weather report)

Report is more than 6 hours old.

Closest report is Hacienda San José Airport, 17.3 nm (32.0 km) SSE. Retrieved 2009/08/18 12:00 UTC (10 years ago):

SVSS 181200Z 00000KT 5000 +HZ BKN030 XX/XX Q1014

TAF (pilot weather forecast)

Closest forecast is La Chinita International Airport, 60.1 nm (111.2 km) NNW. Retrieved 2019/04/22 18:03 UTC (4 hours ago):

TAF SVMC 221600Z 2218/2318 08009KT 9999 SCT016 TX35/18Z TN25/08Z TEMPO 2218/2222 10008KT 9999 BKN010